Time;durP1;ratioP1;P1;durP2;ratioP2;P2;SDS_P1;SDS_P2;PMS_P1;PMS_P2;Temp;Humidity;BMP_temperature;BMP_pressure;BME280_temperature;BME280_humidity;BME280_pressure;Samples;Min_cycle;Max_cycle;Signal;HPM_P1;HPM_P2
2022/03/16 00:01:05;;;;;;;;;;;;;;;;;;5056721;28;19939;-81
2022/03/16 00:03:30;;;;;;;;;;;;;;;;;;5074524;28;19958;-81
2022/03/16 00:05:55;;;;;;;;;;;;;;;;;;5056680;28;19920;-81
2022/03/16 00:08:20;;;;;;;;;;;;;;;;;;5056537;28;19958;-81
2022/03/16 00:10:45;;;;;;;;;;;;;;;;;;5056648;28;19913;-81
2022/03/16 00:13:10;;;;;;;;;;;;;;;;;;5056890;28;20280;-81
2022/03/16 00:15:35;;;;;;;;;;;;;;;;;;5074560;28;19908;-81
2022/03/16 00:18:00;;;;;;;;;;;;;;;;;;5056943;28;19916;-81
2022/03/16 00:20:25;;;;;;;;;;;;;;;;;;5056768;28;19923;-81
2022/03/16 00:22:51;;;;;;;;;;;;;;;;;;5056600;28;20182;-81
2022/03/16 00:25:16;;;;;;;;;;;;;;;;;;5074184;28;19931;-81
2022/03/16 00:27:41;;;;;;;;;;;;;;;;;;5056716;28;19913;-81
2022/03/16 00:30:06;;;;;;;;;;;;;;;;;;5056035;28;20001;-81
2022/03/16 00:32:31;;;;;;;;;;;;;;;;;;5056287;28;19912;-80
2022/03/16 00:34:56;;;;;;;;;;;;;;;;;;5074082;28;19908;-81
2022/03/16 00:37:21;;;;;;;;;;;;;;;;;;5056635;28;19937;-81
2022/03/16 00:39:46;;;;;;;;;;;;;;;;;;5056467;28;19952;-81
2022/03/16 00:42:12;;;;;;;;;;;;;;;;;;5056246;28;19919;-81
2022/03/16 00:44:37;;;;;;;;;;;;;;;;;;5055873;28;19914;-81
2022/03/16 00:47:02;;;;;;;;;;;;;;;;;;5055576;28;19923;-81
2022/03/16 00:49:27;;;;;;;;;;;;;;;;;;5056187;28;19962;-81
2022/03/16 00:51:52;;;;;;;;;;;;;;;;;;5056103;28;19912;-81
2022/03/16 00:54:17;;;;;;;;;;;;;;;;;;5073562;28;19921;-81
2022/03/16 00:56:42;;;;;;;;;;;;;;;;;;5055970;28;19912;-81
2022/03/16 00:59:07;;;;;;;;;;;;;;;;;;5055994;28;19913;-81
2022/03/16 01:01:32;;;;;;;;;;;;;;;;;;5073752;28;20058;-81
2022/03/16 01:03:58;;;;;;;;;;;;;;;;;;5055461;28;20310;-81
2022/03/16 01:06:23;;;;;;;;;;;;;;;;;;5055687;28;19969;-81
2022/03/16 01:08:48;;;;;;;;;;;;;;;;;;5055663;28;20009;-81
2022/03/16 01:11:13;;;;;;;;;;;;;;;;;;5055315;28;19912;-81
2022/03/16 01:13:38;;;;;;;;;;;;;;;;;;5055250;28;20014;-80
2022/03/16 01:16:03;;;;;;;;;;;;;;;;;;5055614;28;20003;-80
2022/03/16 01:18:28;;;;;;;;;;;;;;;;;;5055928;28;19966;-80
2022/03/16 01:20:53;;;;;;;;;;;;;;;;;;5055622;28;19954;-81
2022/03/16 01:23:18;;;;;;;;;;;;;;;;;;5055363;28;19920;-81
2022/03/16 01:25:44;;;;;;;;;;;;;;;;;;5055516;28;19913;-81
2022/03/16 01:28:09;;;;;;;;;;;;;;;;;;5055619;28;19920;-81
2022/03/16 01:30:34;;;;;;;;;;;;;;;;;;5055468;28;19999;-81
2022/03/16 01:32:59;;;;;;;;;;;;;;;;;;5073317;28;20253;-81
2022/03/16 01:35:24;;;;;;;;;;;;;;;;;;5072989;28;20472;-81
2022/03/16 01:37:49;;;;;;;;;;;;;;;;;;5055481;28;20003;-81
2022/03/16 01:40:14;;;;;;;;;;;;;;;;;;5072792;28;19909;-81
2022/03/16 01:42:39;;;;;;;;;;;;;;;;;;5054956;28;20271;-81
2022/03/16 01:45:04;;;;;;;;;;;;;;;;;;5054686;28;19909;-81
2022/03/16 01:47:30;;;;;;;;;;;;;;;;;;5055194;28;19920;-81
2022/03/16 01:49:55;;;;;;;;;;;;;;;;;;5055163;28;19917;-81
2022/03/16 01:52:22;;;;;;;;;;;;;;;;;;5054733;28;20553;-81
2022/03/16 01:54:47;;;;;;;;;;;;;;;;;;5054297;28;19938;-81
2022/03/16 01:57:12;;;;;;;;;;;;;;;;;;5054338;28;20272;-81
2022/03/16 01:59:37;;;;;;;;;;;;;;;;;;5054492;28;19909;-81
2022/03/16 02:02:02;;;;;;;;;;;;;;;;;;5054898;28;19909;-81
2022/03/16 02:04:27;;;;;;;;;;;;;;;;;;5054506;28;19904;-81
2022/03/16 02:06:53;;;;;;;;;;;;;;;;;;5054866;28;20029;-81
2022/03/16 02:09:18;;;;;;;;;;;;;;;;;;5054823;28;20368;-81
2022/03/16 02:11:43;;;;;;;;;;;;;;;;;;5072714;28;19958;-81
2022/03/16 02:14:08;;;;;;;;;;;;;;;;;;5054348;28;19942;-81
2022/03/16 02:16:36;;;;;;;;;;;;;;;;;;5054672;28;19919;-81
2022/03/16 02:19:01;;;;;;;;;;;;;;;;;;5072529;28;19916;-81
2022/03/16 02:21:26;;;;;;;;;;;;;;;;;;5072288;28;19915;-81
2022/03/16 02:23:51;;;;;;;;;;;;;;;;;;5053966;28;19958;-81
2022/03/16 02:26:17;;;;;;;;;;;;;;;;;;5053994;28;20018;-81
2022/03/16 02:28:42;;;;;;;;;;;;;;;;;;5072205;28;19912;-81
2022/03/16 02:31:07;;;;;;;;;;;;;;;;;;5053990;28;19914;-81
2022/03/16 02:33:32;;;;;;;;;;;;;;;;;;5072187;28;20352;-81
2022/03/16 02:35:57;;;;;;;;;;;;;;;;;;5054428;28;20027;-81
2022/03/16 02:38:22;;;;;;;;;;;;;;;;;;5054120;28;20310;-81
2022/03/16 02:40:48;;;;;;;;;;;;;;;;;;5072486;28;19908;-81
2022/03/16 02:43:13;;;;;;;;;;;;;;;;;;5053902;28;19920;-81
2022/03/16 02:45:38;;;;;;;;;;;;;;;;;;5053896;28;19955;-81
2022/03/16 02:48:03;;;;;;;;;;;;;;;;;;5054154;28;19947;-81
2022/03/16 02:50:28;;;;;;;;;;;;;;;;;;5054121;28;20424;-81
2022/03/16 02:52:53;;;;;;;;;;;;;;;;;;5053881;28;19981;-81
2022/03/16 02:55:19;;;;;;;;;;;;;;;;;;5053789;28;20356;-81
2022/03/16 02:57:44;;;;;;;;;;;;;;;;;;5071894;28;19916;-81
2022/03/16 03:00:09;;;;;;;;;;;;;;;;;;5053832;28;19909;-81
2022/03/16 03:02:34;;;;;;;;;;;;;;;;;;5053934;28;20427;-81
2022/03/16 03:04:59;;;;;;;;;;;;;;;;;;5071807;28;20251;-81
2022/03/16 03:07:24;;;;;;;;;;;;;;;;;;5072034;28;19912;-81
2022/03/16 03:09:49;;;;;;;;;;;;;;;;;;5055846;28;20275;-81
2022/03/16 03:12:14;;;;;;;;;;;;;;;;;;5075900;28;19962;-81
2022/03/16 03:14:39;;;;;;;;;;;;;;;;;;5057378;28;19916;-81
2022/03/16 03:17:04;;;;;;;;;;;;;;;;;;5058052;28;19908;-81
2022/03/16 03:19:30;;;;;;;;;;;;;;;;;;5076066;28;20018;-81
2022/03/16 03:21:55;;;;;;;;;;;;;;;;;;5057766;28;20389;-81
2022/03/16 03:24:20;;;;;;;;;;;;;;;;;;5080353;28;19915;-81
2022/03/16 03:26:45;;;;;;;;;;;;;;;;;;5074396;28;19908;-81
2022/03/16 03:29:10;;;;;;;;;;;;;;;;;;5074078;28;19949;-81
2022/03/16 03:31:35;;;;;;;;;;;;;;;;;;5075148;28;19913;-81
2022/03/16 03:34:00;;;;;;;;;;;;;;;;;;5073980;28;20384;-81
2022/03/16 03:36:26;;;;;;;;;;;;;;;;;;5074373;28;20395;-81
2022/03/16 03:38:51;;;;;;;;;;;;;;;;;;5074006;28;19978;-81
2022/03/16 03:41:16;;;;;;;;;;;;;;;;;;5075151;28;19952;-81
2022/03/16 03:43:41;;;;;;;;;;;;;;;;;;5074899;28;20007;-81
2022/03/16 03:46:06;;;;;;;;;;;;;;;;;;5073795;28;19916;-81
2022/03/16 03:48:31;;;;;;;;;;;;;;;;;;5075326;28;20009;-81
2022/03/16 03:50:56;;;;;;;;;;;;;;;;;;5074738;28;19958;-81
2022/03/16 03:53:21;;;;;;;;;;;;;;;;;;5073426;28;20064;-81
2022/03/16 03:55:46;;;;;;;;;;;;;;;;;;5075211;28;20351;-81
2022/03/16 03:58:12;;;;;;;;;;;;;;;;;;5074028;28;20244;-81
2022/03/16 04:00:37;;;;;;;;;;;;;;;;;;5074523;28;19912;-81
2022/03/16 04:03:02;;;;;;;;;;;;;;;;;;5072093;28;19921;-81
2022/03/16 04:05:27;;;;;;;;;;;;;;;;;;5072131;28;19915;-81
2022/03/16 04:07:52;;;;;;;;;;;;;;;;;;5073537;28;20440;-81
2022/03/16 04:10:17;;;;;;;;;;;;;;;;;;5073539;28;20372;-81
2022/03/16 04:12:42;;;;;;;;;;;;;;;;;;5073315;28;19912;-81
2022/03/16 04:15:07;;;;;;;;;;;;;;;;;;5073015;28;19915;-81
2022/03/16 04:17:32;;;;;;;;;;;;;;;;;;5074678;28;19909;-81
2022/03/16 04:19:58;;;;;;;;;;;;;;;;;;5074615;28;20028;-81
2022/03/16 04:22:23;;;;;;;;;;;;;;;;;;5073284;28;20322;-81
2022/03/16 04:24:48;;;;;;;;;;;;;;;;;;5072850;28;19979;-81
2022/03/16 04:27:13;;;;;;;;;;;;;;;;;;5072884;28;19908;-81
2022/03/16 04:29:38;;;;;;;;;;;;;;;;;;5073410;28;19908;-80
2022/03/16 04:32:03;;;;;;;;;;;;;;;;;;5073099;28;19913;-81
2022/03/16 04:34:28;;;;;;;;;;;;;;;;;;5074388;28;20268;-81
2022/03/16 04:36:53;;;;;;;;;;;;;;;;;;5073073;28;19919;-81
2022/03/16 04:39:18;;;;;;;;;;;;;;;;;;5074294;28;19915;-81
2022/03/16 04:41:43;;;;;;;;;;;;;;;;;;5072810;28;19916;-81
2022/03/16 04:44:08;;;;;;;;;;;;;;;;;;5073660;28;19915;-81
2022/03/16 04:46:34;;;;;;;;;;;;;;;;;;5072513;28;19923;-81
2022/03/16 04:48:59;;;;;;;;;;;;;;;;;;5074273;28;19909;-81
2022/03/16 04:51:24;;;;;;;;;;;;;;;;;;5072812;28;19995;-81
2022/03/16 04:53:49;;;;;;;;;;;;;;;;;;5073761;28;19912;-81
2022/03/16 04:56:14;;;;;;;;;;;;;;;;;;5072424;28;19908;-81
2022/03/16 04:58:39;;;;;;;;;;;;;;;;;;5072411;28;20375;-81
2022/03/16 05:01:04;;;;;;;;;;;;;;;;;;5072391;28;19958;-81
2022/03/16 05:03:29;;;;;;;;;;;;;;;;;;5073310;28;20010;-81
2022/03/16 05:05:54;;;;;;;;;;;;;;;;;;5072233;28;19912;-81
2022/03/16 05:08:20;;;;;;;;;;;;;;;;;;5072454;28;20073;-81
2022/03/16 05:10:45;;;;;;;;;;;;;;;;;;5072535;28;19948;-81
2022/03/16 05:13:10;;;;;;;;;;;;;;;;;;5072326;28;19909;-81
2022/03/16 05:15:35;;;;;;;;;;;;;;;;;;5072287;28;19911;-81
2022/03/16 05:18:00;;;;;;;;;;;;;;;;;;5073221;28;19931;-81
2022/03/16 05:20:25;;;;;;;;;;;;;;;;;;5073179;28;19911;-81
2022/03/16 05:22:50;;;;;;;;;;;;;;;;;;5071969;28;20359;-81
2022/03/16 05:25:15;;;;;;;;;;;;;;;;;;5071918;28;19912;-81
2022/03/16 05:27:41;;;;;;;;;;;;;;;;;;5071923;28;19978;-81
2022/03/16 05:30:06;;;;;;;;;;;;;;;;;;5071766;28;19912;-81
2022/03/16 05:32:31;;;;;;;;;;;;;;;;;;5071736;28;20356;-81
2022/03/16 05:34:56;;;;;;;;;;;;;;;;;;5071690;28;19916;-81
2022/03/16 05:37:21;;;;;;;;;;;;;;;;;;5073330;28;20398;-81
2022/03/16 05:39:46;;;;;;;;;;;;;;;;;;5071629;28;19920;-81
2022/03/16 05:42:11;;;;;;;;;;;;;;;;;;5072737;28;20077;-81
2022/03/16 05:44:36;;;;;;;;;;;;;;;;;;5071056;28;19912;-81
2022/03/16 05:47:01;;;;;;;;;;;;;;;;;;5072534;28;19920;-81
2022/03/16 05:49:28;;;;;;;;;;;;;;;;;;5071548;28;19908;-81
2022/03/16 05:51:53;;;;;;;;;;;;;;;;;;5071765;28;20454;-81
2022/03/16 05:54:18;;;;;;;;;;;;;;;;;;5072387;28;20019;-81
2022/03/16 05:56:43;;;;;;;;;;;;;;;;;;5070967;28;19919;-81
2022/03/16 05:59:08;;;;;;;;;;;;;;;;;;5072731;28;19919;-81
2022/03/16 06:01:33;;;;;;;;;;;;;;;;;;5072512;28;19959;-81
2022/03/16 06:03:59;;;;;;;;;;;;;;;;;;5072430;28;20023;-81
2022/03/16 06:06:26;;;;;;;;;;;;;;;;;;5071500;28;20439;-81
2022/03/16 06:08:51;;;;;;;;;;;;;;;;;;5072937;28;20418;-81
2022/03/16 06:11:16;;;;;;;;;;;;;;;;;;5071459;28;19912;-81
2022/03/16 06:13:41;;;;;;;;;;;;;;;;;;5070860;28;19908;-81
2022/03/16 06:16:06;;;;;;;;;;;;;;;;;;5071027;28;19916;-81
2022/03/16 06:18:31;;;;;;;;;;;;;;;;;;5071212;28;19915;-80
2022/03/16 06:20:56;;;;;;;;;;;;;;;;;;5070990;28;19912;-81
2022/03/16 06:23:22;;;;;;;;;;;;;;;;;;5070640;28;20276;-81
2022/03/16 06:25:47;;;;;;;;;;;;;;;;;;5070802;28;19912;-81
2022/03/16 06:28:12;;;;;;;;;;;;;;;;;;5071061;28;19951;-81
2022/03/16 06:30:37;;;;;;;;;;;;;;;;;;5070516;28;19908;-81
2022/03/16 06:33:02;;;;;;;;;;;;;;;;;;5070263;28;19913;-81
2022/03/16 06:35:27;;;;;;;;;;;;;;;;;;5070808;28;19915;-81
2022/03/16 06:37:52;;;;;;;;;;;;;;;;;;5070572;28;19915;-81
2022/03/16 06:40:17;;;;;;;;;;;;;;;;;;5072259;28;19955;-81
2022/03/16 06:42:42;;;;;;;;;;;;;;;;;;5072384;28;20370;-81
2022/03/16 06:45:08;;;;;;;;;;;;;;;;;;5069955;28;19908;-81
2022/03/16 06:47:33;;;;;;;;;;;;;;;;;;5071098;28;19920;-81
2022/03/16 06:49:58;;;;;;;;;;;;;;;;;;5070868;28;20344;-81
2022/03/16 06:52:23;;;;;;;;;;;;;;;;;;5071000;28;20323;-81
2022/03/16 06:54:48;;;;;;;;;;;;;;;;;;5071924;28;20482;-81
2022/03/16 06:57:13;;;;;;;;;;;;;;;;;;5092098;28;19918;-81
2022/03/16 06:59:38;;;;;;;;;;;;;;;;;;5075143;28;20003;-81
2022/03/16 07:02:03;;;;;;;;;;;;;;;;;;5066424;28;19912;-81
2022/03/16 07:04:28;;;;;;;;;;;;;;;;;;5085487;28;20428;-81
2022/03/16 07:06:54;;;;;;;;;;;;;;;;;;5073822;28;19916;-82
2022/03/16 07:09:19;;;;;;;;;;;;;;;;;;5075110;28;19919;-81
2022/03/16 07:11:44;;;;;;;;;;;;;;;;;;5093374;28;19913;-81
2022/03/16 07:16:53;;;;;;;;;;;;;;;;;;5093253;28;20401;-81
2022/03/16 07:19:18;;;;;;;;;;;;;;;;;;5092975;28;19911;-81
2022/03/16 07:21:43;;;;;;;;;;;;;;;;;;5074937;28;19919;-81
2022/03/16 07:24:08;;;;;;;;;;;;;;;;;;5093033;28;19953;-81
2022/03/16 07:26:34;;;;;;;;;;;;;;;;;;5074729;28;20006;-81
2022/03/16 07:28:59;;;;;;;;;;;;;;;;;;5074332;28;19912;-81
2022/03/16 07:31:24;;;;;;;;;;;;;;;;;;5074287;28;19966;-81
2022/03/16 07:33:50;;;;;;;;;;;;;;;;;;5092976;28;19999;-81
2022/03/16 07:36:16;;;;;;;;;;;;;;;;;;5074653;28;20391;-81
2022/03/16 07:38:41;;;;;;;;;;;;;;;;;;5074664;28;19930;-81
2022/03/16 07:41:06;;;;;;;;;;;;;;;;;;5093217;28;19909;-81
2022/03/16 07:43:31;;;;;;;;;;;;;;;;;;5073453;28;19912;-81
2022/03/16 07:45:56;;;;;;;;;;;;;;;;;;5072100;28;19913;-81
2022/03/16 07:48:21;;;;;;;;;;;;;;;;;;5074150;28;20360;-81
2022/03/16 07:50:47;;;;;;;;;;;;;;;;;;5092951;28;20271;-81
2022/03/16 07:53:12;;;;;;;;;;;;;;;;;;5092913;28;19915;-82
2022/03/16 07:55:37;;;;;;;;;;;;;;;;;;5091982;28;19912;-81
2022/03/16 07:58:03;;;;;;;;;;;;;;;;;;5075955;28;19912;-81
2022/03/16 08:00:28;;;;;;;;;;;;;;;;;;5077294;28;19919;-81
2022/03/16 08:02:53;;;;;;;;;;;;;;;;;;5094879;28;19920;-81
2022/03/16 08:05:21;;;;;;;;;;;;;;;;;;5095816;28;19912;-81
2022/03/16 08:07:46;;;;;;;;;;;;;;;;;;5082132;28;19912;-81
2022/03/16 08:10:11;;;;;;;;;;;;;;;;;;5076082;28;19935;-80
2022/03/16 08:12:36;;;;;;;;;;;;;;;;;;5070254;28;19947;-80
2022/03/16 08:15:01;;;;;;;;;;;;;;;;;;5085113;28;19951;-78
2022/03/16 08:17:26;;;;;;;;;;;;;;;;;;5076644;28;19955;-79
2022/03/16 08:19:51;;;;;;;;;;;;;;;;;;5076542;28;20458;-78
2022/03/16 08:22:16;;;;;;;;;;;;;;;;;;5077629;28;19912;-81
2022/03/16 08:24:41;;;;;;;;;;;;;;;;;;5087534;28;19937;-81
2022/03/16 08:27:07;;;;;;;;;;;;;;;;;;5081626;28;19936;-81
2022/03/16 08:29:32;;;;;;;;;;;;;;;;;;5089166;28;19915;-81
2022/03/16 08:32:00;;;;;;;;;;;;;;;;;;5079374;28;19966;-81
2022/03/16 08:34:25;;;;;;;;;;;;;;;;;;5075555;28;19998;-81
2022/03/16 08:36:51;;;;;;;;;;;;;;;;;;5087016;28;20008;-81
2022/03/16 08:39:16;;;;;;;;;;;;;;;;;;5102611;28;20419;-81
2022/03/16 08:41:41;;;;;;;;;;;;;;;;;;5102902;28;19923;-81
2022/03/16 08:44:08;;;;;;;;;;;;;;;;;;5088993;28;20267;-79
2022/03/16 08:46:33;;;;;;;;;;;;;;;;;;5080083;28;19923;-79
2022/03/16 08:48:58;;;;;;;;;;;;;;;;;;5088017;28;19912;-78
2022/03/16 08:51:23;;;;;;;;;;;;;;;;;;5085653;28;19958;-79
2022/03/16 08:53:49;;;;;;;;;;;;;;;;;;5080588;28;20359;-79
2022/03/16 08:56:15;;;;;;;;;;;;;;;;;;5088581;28;19908;-78
2022/03/16 08:58:40;;;;;;;;;;;;;;;;;;5083344;28;19912;-80
2022/03/16 09:01:05;;;;;;;;;;;;;;;;;;5077159;28;20015;-81
2022/03/16 09:03:30;;;;;;;;;;;;;;;;;;5077117;28;19908;-81
2022/03/16 09:05:55;;;;;;;;;;;;;;;;;;5067336;28;19912;-82
2022/03/16 09:08:20;;;;;;;;;;;;;;;;;;5076353;28;19945;-81
2022/03/16 09:10:47;;;;;;;;;;;;;;;;;;5076546;28;19908;-81
2022/03/16 09:13:14;;;;;;;;;;;;;;;;;;5076872;28;20018;-81
2022/03/16 09:15:39;;;;;;;;;;;;;;;;;;5094692;28;19919;-80
2022/03/16 09:18:06;;;;;;;;;;;;;;;;;;5076242;28;19912;-81
2022/03/16 09:20:31;;;;;;;;;;;;;;;;;;5075967;28;19908;-80
2022/03/16 09:23:00;;;;;;;;;;;;;;;;;;5076022;28;19961;-81
2022/03/16 09:25:25;;;;;;;;;;;;;;;;;;5075346;28;20375;-81
2022/03/16 09:27:50;;;;;;;;;;;;;;;;;;5095028;28;19915;-81
2022/03/16 09:30:15;;;;;;;;;;;;;;;;;;5093211;28;19999;-81
2022/03/16 09:32:40;;;;;;;;;;;;;;;;;;5075459;28;19943;-81
2022/03/16 09:35:06;;;;;;;;;;;;;;;;;;5094318;28;19913;-79
2022/03/16 09:37:31;;;;;;;;;;;;;;;;;;5070073;28;19912;-78
2022/03/16 09:39:56;;;;;;;;;;;;;;;;;;5084125;28;19970;-79
2022/03/16 09:42:22;;;;;;;;;;;;;;;;;;5094842;28;19955;-78
2022/03/16 09:44:49;;;;;;;;;;;;;;;;;;5069710;28;19916;-78
2022/03/16 09:47:14;;;;;;;;;;;;;;;;;;5085502;28;19923;-78
2022/03/16 09:49:39;;;;;;;;;;;;;;;;;;5074350;28;20467;-79
2022/03/16 09:52:04;;;;;;;;;;;;;;;;;;5082586;28;19916;-79
2022/03/16 09:54:29;;;;;;;;;;;;;;;;;;5091025;28;19922;-79
2022/03/16 09:56:55;;;;;;;;;;;;;;;;;;5087554;28;20571;-78
2022/03/16 09:59:21;;;;;;;;;;;;;;;;;;5096782;28;19907;-79
2022/03/16 10:01:46;;;;;;;;;;;;;;;;;;5096463;28;19915;-79
2022/03/16 10:04:11;;;;;;;;;;;;;;;;;;5096162;28;19912;-79
2022/03/16 10:06:36;;;;;;;;;;;;;;;;;;5093955;28;19912;-79
2022/03/16 10:14:29;;;;;;;;;;;;;;;;;;5093143;28;19919;-82
2022/03/16 10:19:38;;;;;;;;;;;;;;;;;;5093380;28;19958;-81
2022/03/16 10:22:04;;;;;;;;;;;;;;;;;;5094332;28;19947;-81
2022/03/16 10:24:29;;;;;;;;;;;;;;;;;;5075554;28;20006;-82
2022/03/16 10:26:54;;;;;;;;;;;;;;;;;;5088732;28;20003;-82
2022/03/16 10:29:19;;;;;;;;;;;;;;;;;;5075904;28;20352;-82
2022/03/16 10:31:46;;;;;;;;;;;;;;;;;;5093649;28;19916;-82
2022/03/16 10:34:11;;;;;;;;;;;;;;;;;;5074467;28;20050;-82
2022/03/16 10:36:37;;;;;;;;;;;;;;;;;;5073587;28;20014;-82
2022/03/16 10:39:03;;;;;;;;;;;;;;;;;;5074050;28;20065;-82
2022/03/16 10:46:55;;;;;;;;;;;;;;;;;;5091388;28;19982;-82
2022/03/16 10:49:22;;;;;;;;;;;;;;;;;;5073853;28;19945;-82
2022/03/16 10:51:47;;;;;;;;;;;;;;;;;;5092067;28;20287;-82
2022/03/16 10:54:15;;;;;;;;;;;;;;;;;;5073992;28;19915;-82
2022/03/16 10:56:41;;;;;;;;;;;;;;;;;;5066107;28;19912;-82
2022/03/16 10:59:06;;;;;;;;;;;;;;;;;;5053765;28;20007;-82
2022/03/16 11:01:32;;;;;;;;;;;;;;;;;;5054156;28;20201;-82
2022/03/16 11:03:58;;;;;;;;;;;;;;;;;;5054076;28;20003;-82
2022/03/16 11:06:23;;;;;;;;;;;;;;;;;;5053658;28;19946;-82
2022/03/16 11:08:48;;;;;;;;;;;;;;;;;;5053872;28;20277;-82
2022/03/16 11:13:57;;;;;;;;;;;;;;;;;;5071858;28;19915;-82
2022/03/16 11:16:23;;;;;;;;;;;;;;;;;;5053562;28;19908;-82
2022/03/16 11:18:48;;;;;;;;;;;;;;;;;;5053812;28;19970;-82
2022/03/16 11:21:13;;;;;;;;;;;;;;;;;;5053545;28;19904;-82
2022/03/16 11:26:24;;;;;;;;;;;;;;;;;;5071599;28;19958;-82
2022/03/16 11:28:50;;;;;;;;;;;;;;;;;;5053731;28;19904;-82
2022/03/16 11:31:15;;;;;;;;;;;;;;;;;;5073872;28;19962;-82
2022/03/16 11:33:40;;;;;;;;;;;;;;;;;;5075459;28;19908;-82
2022/03/16 11:36:06;;;;;;;;;;;;;;;;;;5057196;28;19908;-82
2022/03/16 11:38:33;;;;;;;;;;;;;;;;;;5057788;28;19944;-80
2022/03/16 11:40:58;;;;;;;;;;;;;;;;;;5057684;28;19931;-80
2022/03/16 11:43:23;;;;;;;;;;;;;;;;;;5057459;28;19909;-80
2022/03/16 11:45:50;;;;;;;;;;;;;;;;;;5056845;28;19923;-80
2022/03/16 11:48:16;;;;;;;;;;;;;;;;;;5057308;28;19944;-79
2022/03/16 11:50:42;;;;;;;;;;;;;;;;;;5057171;28;19915;-80
2022/03/16 11:53:11;;;;;;;;;;;;;;;;;;5057541;28;19908;-80
2022/03/16 11:55:36;;;;;;;;;;;;;;;;;;5057002;28;19913;-80
2022/03/16 11:58:01;;;;;;;;;;;;;;;;;;5057292;28;20444;-80
2022/03/16 12:00:26;;;;;;;;;;;;;;;;;;5056975;28;19905;-82
2022/03/16 12:02:51;;;;;;;;;;;;;;;;;;5075292;28;20348;-82
2022/03/16 12:05:20;;;;;;;;;;;;;;;;;;5056748;28;20265;-82
2022/03/16 12:07:45;;;;;;;;;;;;;;;;;;5074785;28;19909;-82
2022/03/16 12:10:15;;;;;;;;;;;;;;;;;;5074901;28;19909;-82
2022/03/16 12:12:57;;;;;;;;;;;;;;;;;;5074475;28;19966;-82
2022/03/16 12:15:22;;;;;;;;;;;;;;;;;;5074225;28;19915;-82
2022/03/16 12:17:48;;;;;;;;;;;;;;;;;;5074627;28;20271;-82
2022/03/16 12:20:14;;;;;;;;;;;;;;;;;;5074829;28;19916;-82
2022/03/16 12:22:41;;;;;;;;;;;;;;;;;;5056512;28;19920;-82
2022/03/16 12:25:10;;;;;;;;;;;;;;;;;;5074377;28;20213;-82
2022/03/16 12:30:19;;;;;;;;;;;;;;;;;;5074664;28;20275;-82
2022/03/16 12:32:44;;;;;;;;;;;;;;;;;;5074758;28;19913;-82
2022/03/16 12:35:10;;;;;;;;;;;;;;;;;;5074002;28;19908;-82
2022/03/16 12:37:35;;;;;;;;;;;;;;;;;;5056182;28;20348;-82
2022/03/16 12:40:00;;;;;;;;;;;;;;;;;;5056685;28;19913;-79
2022/03/16 12:42:31;;;;;;;;;;;;;;;;;;5055622;28;19913;-80
2022/03/16 12:44:56;;;;;;;;;;;;;;;;;;5074255;28;19936;-80
2022/03/16 12:47:22;;;;;;;;;;;;;;;;;;5056178;28;19956;-80
2022/03/16 12:49:48;;;;;;;;;;;;;;;;;;5055768;28;20346;-80
2022/03/16 12:52:13;;;;;;;;;;;;;;;;;;5056151;28;19916;-80
2022/03/16 12:54:38;;;;;;;;;;;;;;;;;;5055799;28;20030;-80
2022/03/16 12:57:05;;;;;;;;;;;;;;;;;;5073822;28;19916;-80
2022/03/16 12:59:31;;;;;;;;;;;;;;;;;;5056143;28;19923;-80
2022/03/16 13:01:56;;;;;;;;;;;;;;;;;;5055733;28;19987;-80
2022/03/16 13:04:21;;;;;;;;;;;;;;;;;;5055646;28;19908;-80
2022/03/16 13:06:46;;;;;;;;;;;;;;;;;;5073135;28;20030;-80
2022/03/16 13:09:11;;;;;;;;;;;;;;;;;;5073673;28;20345;-80
2022/03/16 13:11:39;;;;;;;;;;;;;;;;;;5055584;28;20380;-80
2022/03/16 13:14:05;;;;;;;;;;;;;;;;;;5055745;28;19915;-82
2022/03/16 13:16:30;;;;;;;;;;;;;;;;;;5055220;28;19908;-82
2022/03/16 13:18:55;;;;;;;;;;;;;;;;;;5055301;28;19920;-82
2022/03/16 13:21:20;;;;;;;;;;;;;;;;;;5055442;28;19939;-82
2022/03/16 13:23:46;;;;;;;;;;;;;;;;;;5073216;28;20288;-82
2022/03/16 13:26:12;;;;;;;;;;;;;;;;;;5073302;28;19924;-82
2022/03/16 13:28:37;;;;;;;;;;;;;;;;;;5055633;28;19909;-82
2022/03/16 13:31:02;;;;;;;;;;;;;;;;;;5073293;28;19912;-82
2022/03/16 13:33:27;;;;;;;;;;;;;;;;;;5072951;28;19908;-82
2022/03/16 13:35:53;;;;;;;;;;;;;;;;;;5055030;28;19908;-82
2022/03/16 13:38:18;;;;;;;;;;;;;;;;;;5073260;28;20251;-82
2022/03/16 13:40:45;;;;;;;;;;;;;;;;;;5055008;28;20058;-82
2022/03/16 13:43:11;;;;;;;;;;;;;;;;;;5055237;28;19912;-82
2022/03/16 13:45:36;;;;;;;;;;;;;;;;;;5054809;28;19912;-82
2022/03/16 13:48:05;;;;;;;;;;;;;;;;;;5055246;28;19916;-82
2022/03/16 13:50:30;;;;;;;;;;;;;;;;;;5055270;28;19909;-82
2022/03/16 13:52:55;;;;;;;;;;;;;;;;;;5054909;28;19955;-80
2022/03/16 13:55:21;;;;;;;;;;;;;;;;;;5054753;28;19916;-80
2022/03/16 13:57:46;;;;;;;;;;;;;;;;;;5054755;28;19916;-80
2022/03/16 14:00:11;;;;;;;;;;;;;;;;;;5072735;28;19946;-79
2022/03/16 14:02:36;;;;;;;;;;;;;;;;;;5054628;28;19947;-80
2022/03/16 14:05:02;;;;;;;;;;;;;;;;;;5054183;28;19926;-80
2022/03/16 14:07:27;;;;;;;;;;;;;;;;;;5054907;28;19915;-80
2022/03/16 14:09:53;;;;;;;;;;;;;;;;;;5054529;28;19919;-80
2022/03/16 14:12:19;;;;;;;;;;;;;;;;;;5054711;28;19931;-80
2022/03/16 14:14:45;;;;;;;;;;;;;;;;;;5072208;28;19912;-80
2022/03/16 14:17:10;;;;;;;;;;;;;;;;;;5054375;28;19908;-80
2022/03/16 14:19:35;;;;;;;;;;;;;;;;;;5054503;28;19915;-80
2022/03/16 14:22:00;;;;;;;;;;;;;;;;;;5072462;28;19912;-80
2022/03/16 14:24:25;;;;;;;;;;;;;;;;;;5054141;28;20256;-80
2022/03/16 14:26:51;;;;;;;;;;;;;;;;;;5054099;28;20011;-80
2022/03/16 14:29:16;;;;;;;;;;;;;;;;;;5054036;28;19908;-80
2022/03/16 14:31:43;;;;;;;;;;;;;;;;;;5054399;28;19912;-80
2022/03/16 14:34:08;;;;;;;;;;;;;;;;;;5054522;28;19935;-80
2022/03/16 14:36:33;;;;;;;;;;;;;;;;;;5072076;28;19908;-80
2022/03/16 14:38:58;;;;;;;;;;;;;;;;;;5054351;28;19935;-80
2022/03/16 14:41:23;;;;;;;;;;;;;;;;;;5054200;28;19917;-80
2022/03/16 14:43:48;;;;;;;;;;;;;;;;;;5072324;28;19950;-80
2022/03/16 14:46:14;;;;;;;;;;;;;;;;;;5053703;28;19924;-80
2022/03/16 14:48:39;;;;;;;;;;;;;;;;;;5054039;28;19908;-80
2022/03/16 14:51:04;;;;;;;;;;;;;;;;;;5054027;28;19909;-80
2022/03/16 14:53:29;;;;;;;;;;;;;;;;;;5054130;28;20368;-80
2022/03/16 14:55:54;;;;;;;;;;;;;;;;;;5071418;28;19916;-80
2022/03/16 14:58:19;;;;;;;;;;;;;;;;;;5053882;28;19908;-79
2022/03/16 15:00:45;;;;;;;;;;;;;;;;;;5053858;28;19908;-80
2022/03/16 15:03:14;;;;;;;;;;;;;;;;;;5053781;28;20015;-80
2022/03/16 15:05:41;;;;;;;;;;;;;;;;;;5053172;28;19919;-80
2022/03/16 15:08:06;;;;;;;;;;;;;;;;;;5053811;28;19916;-80
2022/03/16 15:10:32;;;;;;;;;;;;;;;;;;5072026;28;19913;-80
2022/03/16 15:12:57;;;;;;;;;;;;;;;;;;5053843;28;19913;-80
2022/03/16 15:15:22;;;;;;;;;;;;;;;;;;5071493;28;19908;-80
2022/03/16 15:17:47;;;;;;;;;;;;;;;;;;5053972;28;20352;-80
2022/03/16 15:20:12;;;;;;;;;;;;;;;;;;5053730;28;19920;-80
2022/03/16 15:22:38;;;;;;;;;;;;;;;;;;5053913;28;19909;-80
2022/03/16 15:25:03;;;;;;;;;;;;;;;;;;5071735;28;19931;-80
2022/03/16 15:27:29;;;;;;;;;;;;;;;;;;5071800;28;20422;-80
2022/03/16 15:29:54;;;;;;;;;;;;;;;;;;5053813;28;19963;-80
2022/03/16 15:32:19;;;;;;;;;;;;;;;;;;5053089;28;19962;-80
2022/03/16 15:34:44;;;;;;;;;;;;;;;;;;5053248;28;20013;-80
2022/03/16 15:37:09;;;;;;;;;;;;;;;;;;5053833;28;20133;-80
2022/03/16 15:39:38;;;;;;;;;;;;;;;;;;5053633;28;20424;-80
2022/03/16 15:44:47;;;;;;;;;;;;;;;;;;5071256;28;19950;-80
2022/03/16 15:47:12;;;;;;;;;;;;;;;;;;5053443;28;19928;-80
2022/03/16 15:49:37;;;;;;;;;;;;;;;;;;5053797;28;20272;-80
2022/03/16 15:52:02;;;;;;;;;;;;;;;;;;5071717;28;20280;-80
2022/03/16 15:54:28;;;;;;;;;;;;;;;;;;5053112;28;19912;-80
2022/03/16 15:56:54;;;;;;;;;;;;;;;;;;5053353;28;20029;-80
2022/03/16 15:59:20;;;;;;;;;;;;;;;;;;5053368;28;19913;-80
2022/03/16 16:01:45;;;;;;;;;;;;;;;;;;5053172;28;19974;-80
2022/03/16 16:04:10;;;;;;;;;;;;;;;;;;5053317;28;19962;-80
2022/03/16 16:06:36;;;;;;;;;;;;;;;;;;5053202;28;19912;-80
2022/03/16 16:09:01;;;;;;;;;;;;;;;;;;5053509;28;19913;-80
2022/03/16 16:11:26;;;;;;;;;;;;;;;;;;5071356;28;19913;-80
2022/03/16 16:13:52;;;;;;;;;;;;;;;;;;5053483;28;19915;-80
2022/03/16 16:16:17;;;;;;;;;;;;;;;;;;5052332;28;19999;-80
2022/03/16 16:18:42;;;;;;;;;;;;;;;;;;5056147;28;20016;-80
2022/03/16 16:21:07;;;;;;;;;;;;;;;;;;5056712;28;19939;-80
2022/03/16 16:23:34;;;;;;;;;;;;;;;;;;5074839;28;19908;-80
2022/03/16 16:25:59;;;;;;;;;;;;;;;;;;5056450;28;19912;-82
2022/03/16 16:28:24;;;;;;;;;;;;;;;;;;5056508;28;19913;-82
2022/03/16 16:30:49;;;;;;;;;;;;;;;;;;5056540;28;19916;-82
2022/03/16 16:33:15;;;;;;;;;;;;;;;;;;5056763;28;19965;-83
2022/03/16 16:35:40;;;;;;;;;;;;;;;;;;5055868;28;19908;-82
2022/03/16 16:38:05;;;;;;;;;;;;;;;;;;5074300;28;19943;-82
2022/03/16 16:40:30;;;;;;;;;;;;;;;;;;5074372;28;20346;-82
2022/03/16 16:43:14;;;;;;;;;;;;;;;;;;5056487;28;19908;-83
2022/03/16 16:45:39;;;;;;;;;;;;;;;;;;5073542;28;19913;-83
2022/03/16 16:48:04;;;;;;;;;;;;;;;;;;5055920;28;19915;-82
2022/03/16 16:50:29;;;;;;;;;;;;;;;;;;5056085;28;19913;-82
2022/03/16 16:52:55;;;;;;;;;;;;;;;;;;5073981;28;19912;-82
2022/03/16 16:55:20;;;;;;;;;;;;;;;;;;5073918;28;19980;-82
2022/03/16 16:57:45;;;;;;;;;;;;;;;;;;5056147;28;20378;-83
2022/03/16 17:00:10;;;;;;;;;;;;;;;;;;5055775;28;19915;-83